Terminal Aerodrome Forecast
Issued by NWS

Home | Current Version | Previous Version | Text Only | Print | Product List | Glossary On
Versions: 1 2 3 4 5 6 7 8 9 10 11 12
000
FTUS45 KPSR 051726
TAFIWA
TAF
KIWA 051726Z 0518/0618 19015G28KT P6SM SCT250
     FM052100 22018G32KT 6SM BLDU FEW250
     FM060400 15007KT P6SM FEW150 FEW250
     FM061100 17008KT P6SM SCT060 BKN100=

USA.gov is the U.S. government's official web portal to all federal, state and local government web resources and services.